sensor_id;sensor_type;location;lat;lon;timestamp;P1;durP1;ratioP1;P2;durP2;ratioP2
44816;SDS011;30529;53.570;9.964;2023-07-30T00:02:00;6.40;;;5.13;;
44816;SDS011;30529;53.570;9.964;2023-07-30T00:04:26;7.20;;;4.53;;
44816;SDS011;30529;53.570;9.964;2023-07-30T00:06:52;7.03;;;4.13;;
44816;SDS011;30529;53.570;9.964;2023-07-30T00:09:17;4.90;;;3.80;;
44816;SDS011;30529;53.570;9.964;2023-07-30T00:11:43;5.20;;;3.70;;
44816;SDS011;30529;53.570;9.964;2023-07-30T00:14:09;7.50;;;3.43;;
44816;SDS011;30529;53.570;9.964;2023-07-30T00:16:35;4.37;;;2.90;;
44816;SDS011;30529;53.570;9.964;2023-07-30T00:19:01;5.17;;;3.03;;
44816;SDS011;30529;53.570;9.964;2023-07-30T00:21:27;4.53;;;3.03;;
44816;SDS011;30529;53.570;9.964;2023-07-30T00:23:53;3.87;;;2.60;;
44816;SDS011;30529;53.570;9.964;2023-07-30T00:26:19;3.67;;;2.77;;
44816;SDS011;30529;53.570;9.964;2023-07-30T00:28:45;5.70;;;3.03;;
44816;SDS011;30529;53.570;9.964;2023-07-30T00:31:11;3.33;;;2.60;;
44816;SDS011;30529;53.570;9.964;2023-07-30T00:33:37;6.73;;;2.63;;
44816;SDS011;30529;53.570;9.964;2023-07-30T00:36:03;3.13;;;2.73;;
44816;SDS011;30529;53.570;9.964;2023-07-30T00:38:30;2.97;;;2.40;;
44816;SDS011;30529;53.570;9.964;2023-07-30T00:40:55;3.40;;;2.60;;
44816;SDS011;30529;53.570;9.964;2023-07-30T00:43:21;4.30;;;2.70;;
44816;SDS011;30529;53.570;9.964;2023-07-30T00:45:48;5.47;;;3.03;;
44816;SDS011;30529;53.570;9.964;2023-07-30T00:48:14;4.57;;;2.67;;
44816;SDS011;30529;53.570;9.964;2023-07-30T00:50:41;5.50;;;2.87;;
44816;SDS011;30529;53.570;9.964;2023-07-30T00:53:09;5.47;;;3.33;;
44816;SDS011;30529;53.570;9.964;2023-07-30T00:55:36;6.70;;;3.50;;
44816;SDS011;30529;53.570;9.964;2023-07-30T00:58:02;4.73;;;3.30;;
44816;SDS011;30529;53.570;9.964;2023-07-30T01:00:29;3.83;;;2.87;;
44816;SDS011;30529;53.570;9.964;2023-07-30T01:02:57;5.20;;;4.07;;
44816;SDS011;30529;53.570;9.964;2023-07-30T01:05:23;5.97;;;4.13;;
44816;SDS011;30529;53.570;9.964;2023-07-30T01:07:49;6.27;;;3.60;;
44816;SDS011;30529;53.570;9.964;2023-07-30T01:10:15;6.80;;;3.83;;
44816;SDS011;30529;53.570;9.964;2023-07-30T01:12:41;4.80;;;3.50;;
44816;SDS011;30529;53.570;9.964;2023-07-30T01:15:09;5.53;;;4.30;;
44816;SDS011;30529;53.570;9.964;2023-07-30T01:17:35;7.37;;;3.90;;
44816;SDS011;30529;53.570;9.964;2023-07-30T01:20:02;5.90;;;3.97;;
44816;SDS011;30529;53.570;9.964;2023-07-30T01:22:28;4.43;;;3.60;;
44816;SDS011;30529;53.570;9.964;2023-07-30T01:24:54;5.53;;;3.43;;
44816;SDS011;30529;53.570;9.964;2023-07-30T01:27:24;3.97;;;3.27;;
44816;SDS011;30529;53.570;9.964;2023-07-30T01:29:55;5.67;;;3.87;;
44816;SDS011;30529;53.570;9.964;2023-07-30T01:32:35;4.67;;;3.83;;
44816;SDS011;30529;53.570;9.964;2023-07-30T01:35:02;7.50;;;3.50;;
44816;SDS011;30529;53.570;9.964;2023-07-30T01:37:31;3.93;;;3.30;;
44816;SDS011;30529;53.570;9.964;2023-07-30T01:39:59;3.93;;;3.43;;
44816;SDS011;30529;53.570;9.964;2023-07-30T01:42:29;5.53;;;3.70;;
44816;SDS011;30529;53.570;9.964;2023-07-30T01:44:55;3.83;;;3.33;;
44816;SDS011;30529;53.570;9.964;2023-07-30T01:47:22;5.50;;;3.87;;
44816;SDS011;30529;53.570;9.964;2023-07-30T01:49:48;4.63;;;3.27;;
44816;SDS011;30529;53.570;9.964;2023-07-30T01:52:14;5.50;;;3.50;;
44816;SDS011;30529;53.570;9.964;2023-07-30T01:54:40;6.10;;;4.10;;
44816;SDS011;30529;53.570;9.964;2023-07-30T01:57:07;5.27;;;3.83;;
44816;SDS011;30529;53.570;9.964;2023-07-30T01:59:33;6.20;;;4.20;;
44816;SDS011;30529;53.570;9.964;2023-07-30T02:01:59;5.50;;;4.20;;
44816;SDS011;30529;53.570;9.964;2023-07-30T02:04:25;6.03;;;3.77;;
44816;SDS011;30529;53.570;9.964;2023-07-30T02:06:51;5.60;;;4.27;;
44816;SDS011;30529;53.570;9.964;2023-07-30T02:09:17;7.03;;;4.80;;
44816;SDS011;30529;53.570;9.964;2023-07-30T02:11:44;7.70;;;4.33;;
44816;SDS011;30529;53.570;9.964;2023-07-30T02:14:10;6.90;;;4.23;;
44816;SDS011;30529;53.570;9.964;2023-07-30T02:16:36;4.40;;;3.80;;
44816;SDS011;30529;53.570;9.964;2023-07-30T02:19:03;5.30;;;4.13;;
44816;SDS011;30529;53.570;9.964;2023-07-30T02:21:29;4.83;;;4.23;;
44816;SDS011;30529;53.570;9.964;2023-07-30T02:23:58;6.90;;;4.50;;
44816;SDS011;30529;53.570;9.964;2023-07-30T02:26:25;6.30;;;4.37;;
44816;SDS011;30529;53.570;9.964;2023-07-30T02:28:51;6.00;;;4.53;;
44816;SDS011;30529;53.570;9.964;2023-07-30T02:31:17;4.73;;;4.23;;
44816;SDS011;30529;53.570;9.964;2023-07-30T02:33:43;4.80;;;4.30;;
44816;SDS011;30529;53.570;9.964;2023-07-30T02:36:08;9.70;;;4.37;;
44816;SDS011;30529;53.570;9.964;2023-07-30T02:38:34;6.63;;;4.40;;
44816;SDS011;30529;53.570;9.964;2023-07-30T02:41:00;6.40;;;5.13;;
44816;SDS011;30529;53.570;9.964;2023-07-30T02:43:26;7.60;;;5.10;;
44816;SDS011;30529;53.570;9.964;2023-07-30T02:45:52;5.30;;;4.60;;
44816;SDS011;30529;53.570;9.964;2023-07-30T02:48:18;6.30;;;4.53;;
44816;SDS011;30529;53.570;9.964;2023-07-30T02:50:44;6.63;;;5.57;;
44816;SDS011;30529;53.570;9.964;2023-07-30T02:53:10;6.70;;;5.47;;
44816;SDS011;30529;53.570;9.964;2023-07-30T02:55:36;5.67;;;4.70;;
44816;SDS011;30529;53.570;9.964;2023-07-30T02:58:02;5.97;;;5.10;;
44816;SDS011;30529;53.570;9.964;2023-07-30T03:00:28;6.10;;;5.10;;
44816;SDS011;30529;53.570;9.964;2023-07-30T03:02:55;7.73;;;5.23;;
44816;SDS011;30529;53.570;9.964;2023-07-30T03:05:22;5.77;;;5.17;;
44816;SDS011;30529;53.570;9.964;2023-07-30T03:07:48;6.10;;;5.47;;
44816;SDS011;30529;53.570;9.964;2023-07-30T03:10:14;6.47;;;5.43;;
44816;SDS011;30529;53.570;9.964;2023-07-30T03:12:40;5.83;;;5.30;;
44816;SDS011;30529;53.570;9.964;2023-07-30T03:15:06;6.77;;;5.70;;
44816;SDS011;30529;53.570;9.964;2023-07-30T03:17:32;5.87;;;5.23;;
44816;SDS011;30529;53.570;9.964;2023-07-30T03:19:58;7.40;;;5.77;;
44816;SDS011;30529;53.570;9.964;2023-07-30T03:22:24;6.57;;;5.70;;
44816;SDS011;30529;53.570;9.964;2023-07-30T03:24:50;5.80;;;5.07;;
44816;SDS011;30529;53.570;9.964;2023-07-30T03:27:16;8.03;;;5.57;;
44816;SDS011;30529;53.570;9.964;2023-07-30T03:29:42;6.80;;;5.50;;
44816;SDS011;30529;53.570;9.964;2023-07-30T03:32:08;7.50;;;5.73;;
44816;SDS011;30529;53.570;9.964;2023-07-30T03:34:34;7.03;;;6.07;;
44816;SDS011;30529;53.570;9.964;2023-07-30T03:37:00;6.70;;;5.53;;
44816;SDS011;30529;53.570;9.964;2023-07-30T03:39:26;10.23;;;6.00;;
44816;SDS011;30529;53.570;9.964;2023-07-30T03:41:52;7.13;;;6.40;;
44816;SDS011;30529;53.570;9.964;2023-07-30T03:44:18;8.07;;;5.43;;
44816;SDS011;30529;53.570;9.964;2023-07-30T03:46:45;7.57;;;5.77;;
44816;SDS011;30529;53.570;9.964;2023-07-30T03:49:11;7.27;;;6.17;;
44816;SDS011;30529;53.570;9.964;2023-07-30T03:51:37;6.97;;;5.70;;
44816;SDS011;30529;53.570;9.964;2023-07-30T03:54:06;9.37;;;6.27;;
44816;SDS011;30529;53.570;9.964;2023-07-30T03:56:32;5.80;;;5.27;;
44816;SDS011;30529;53.570;9.964;2023-07-30T03:58:58;12.47;;;5.80;;
44816;SDS011;30529;53.570;9.964;2023-07-30T04:01:24;7.80;;;5.20;;
44816;SDS011;30529;53.570;9.964;2023-07-30T04:03:50;6.60;;;5.87;;
44816;SDS011;30529;53.570;9.964;2023-07-30T04:06:16;7.97;;;5.83;;
44816;SDS011;30529;53.570;9.964;2023-07-30T04:08:42;6.07;;;5.47;;
44816;SDS011;30529;53.570;9.964;2023-07-30T04:11:08;9.03;;;6.70;;
44816;SDS011;30529;53.570;9.964;2023-07-30T04:13:34;6.73;;;5.57;;
44816;SDS011;30529;53.570;9.964;2023-07-30T04:16:00;6.27;;;5.67;;
44816;SDS011;30529;53.570;9.964;2023-07-30T04:18:26;8.30;;;5.83;;
44816;SDS011;30529;53.570;9.964;2023-07-30T04:20:54;6.77;;;6.03;;
44816;SDS011;30529;53.570;9.964;2023-07-30T04:23:21;6.17;;;5.13;;
44816;SDS011;30529;53.570;9.964;2023-07-30T04:25:50;8.70;;;6.03;;
44816;SDS011;30529;53.570;9.964;2023-07-30T04:28:17;5.93;;;4.33;;
44816;SDS011;30529;53.570;9.964;2023-07-30T04:30:43;7.30;;;5.53;;
44816;SDS011;30529;53.570;9.964;2023-07-30T04:33:14;9.50;;;5.60;;
44816;SDS011;30529;53.570;9.964;2023-07-30T04:35:40;7.97;;;5.30;;
44816;SDS011;30529;53.570;9.964;2023-07-30T04:38:06;6.87;;;5.03;;
44816;SDS011;30529;53.570;9.964;2023-07-30T04:40:32;8.37;;;5.20;;
44816;SDS011;30529;53.570;9.964;2023-07-30T04:42:58;6.17;;;4.90;;
44816;SDS011;30529;53.570;9.964;2023-07-30T04:45:24;7.00;;;5.20;;
44816;SDS011;30529;53.570;9.964;2023-07-30T04:47:50;7.60;;;4.90;;
44816;SDS011;30529;53.570;9.964;2023-07-30T04:50:16;7.00;;;4.43;;
44816;SDS011;30529;53.570;9.964;2023-07-30T04:52:42;5.73;;;4.07;;
44816;SDS011;30529;53.570;9.964;2023-07-30T04:55:08;7.67;;;4.93;;
44816;SDS011;30529;53.570;9.964;2023-07-30T04:57:34;19.50;;;5.47;;
44816;SDS011;30529;53.570;9.964;2023-07-30T05:00:00;5.83;;;4.10;;
44816;SDS011;30529;53.570;9.964;2023-07-30T05:02:26;8.60;;;4.53;;
44816;SDS011;30529;53.570;9.964;2023-07-30T05:04:52;7.40;;;4.60;;
44816;SDS011;30529;53.570;9.964;2023-07-30T05:07:18;8.33;;;3.90;;
44816;SDS011;30529;53.570;9.964;2023-07-30T05:09:44;6.33;;;4.43;;
44816;SDS011;30529;53.570;9.964;2023-07-30T05:12:10;6.20;;;4.70;;
44816;SDS011;30529;53.570;9.964;2023-07-30T05:14:36;7.73;;;4.17;;
44816;SDS011;30529;53.570;9.964;2023-07-30T05:17:02;7.00;;;3.77;;
44816;SDS011;30529;53.570;9.964;2023-07-30T05:19:37;8.60;;;4.33;;
44816;SDS011;30529;53.570;9.964;2023-07-30T05:22:06;6.53;;;4.33;;
44816;SDS011;30529;53.570;9.964;2023-07-30T05:24:33;7.27;;;4.33;;
44816;SDS011;30529;53.570;9.964;2023-07-30T05:27:02;7.23;;;4.33;;
44816;SDS011;30529;53.570;9.964;2023-07-30T05:29:28;10.43;;;4.50;;
44816;SDS011;30529;53.570;9.964;2023-07-30T05:31:54;10.43;;;4.70;;
44816;SDS011;30529;53.570;9.964;2023-07-30T05:34:20;8.20;;;4.90;;
44816;SDS011;30529;53.570;9.964;2023-07-30T05:36:49;9.70;;;4.30;;
44816;SDS011;30529;53.570;9.964;2023-07-30T05:39:15;6.37;;;4.37;;
44816;SDS011;30529;53.570;9.964;2023-07-30T05:41:42;6.97;;;5.10;;
44816;SDS011;30529;53.570;9.964;2023-07-30T05:44:08;12.07;;;5.40;;
44816;SDS011;30529;53.570;9.964;2023-07-30T05:46:34;10.10;;;4.20;;
44816;SDS011;30529;53.570;9.964;2023-07-30T05:49:00;8.17;;;4.63;;
44816;SDS011;30529;53.570;9.964;2023-07-30T05:51:26;8.57;;;4.53;;
44816;SDS011;30529;53.570;9.964;2023-07-30T05:53:52;8.13;;;3.77;;
44816;SDS011;30529;53.570;9.964;2023-07-30T05:56:18;6.07;;;4.17;;
44816;SDS011;30529;53.570;9.964;2023-07-30T05:58:45;10.97;;;4.60;;
44816;SDS011;30529;53.570;9.964;2023-07-30T06:01:11;7.60;;;4.27;;
44816;SDS011;30529;53.570;9.964;2023-07-30T06:03:37;6.70;;;3.83;;
44816;SDS011;30529;53.570;9.964;2023-07-30T06:06:03;11.40;;;4.50;;
44816;SDS011;30529;53.570;9.964;2023-07-30T06:08:29;5.97;;;4.03;;
44816;SDS011;30529;53.570;9.964;2023-07-30T06:10:59;9.90;;;4.10;;
44816;SDS011;30529;53.570;9.964;2023-07-30T06:13:27;12.07;;;4.60;;
44816;SDS011;30529;53.570;9.964;2023-07-30T06:15:53;9.37;;;4.47;;
44816;SDS011;30529;53.570;9.964;2023-07-30T06:18:19;11.20;;;4.03;;
44816;SDS011;30529;53.570;9.964;2023-07-30T06:20:46;8.57;;;4.13;;
44816;SDS011;30529;53.570;9.964;2023-07-30T06:23:12;9.90;;;4.33;;
44816;SDS011;30529;53.570;9.964;2023-07-30T06:25:38;8.27;;;4.63;;
44816;SDS011;30529;53.570;9.964;2023-07-30T06:28:04;11.07;;;4.87;;
44816;SDS011;30529;53.570;9.964;2023-07-30T06:30:34;11.93;;;4.57;;
44816;SDS011;30529;53.570;9.964;2023-07-30T06:33:02;12.27;;;5.13;;
44816;SDS011;30529;53.570;9.964;2023-07-30T06:35:28;9.47;;;5.37;;
44816;SDS011;30529;53.570;9.964;2023-07-30T06:37:54;10.70;;;5.63;;
44816;SDS011;30529;53.570;9.964;2023-07-30T06:40:20;15.33;;;7.07;;
44816;SDS011;30529;53.570;9.964;2023-07-30T06:42:46;13.43;;;6.13;;
44816;SDS011;30529;53.570;9.964;2023-07-30T06:45:12;14.90;;;5.40;;
44816;SDS011;30529;53.570;9.964;2023-07-30T06:47:38;10.67;;;6.20;;
44816;SDS011;30529;53.570;9.964;2023-07-30T06:50:04;14.53;;;5.73;;
44816;SDS011;30529;53.570;9.964;2023-07-30T06:52:33;12.90;;;6.20;;
44816;SDS011;30529;53.570;9.964;2023-07-30T06:54:59;16.27;;;6.50;;
44816;SDS011;30529;53.570;9.964;2023-07-30T06:57:25;11.63;;;6.37;;
44816;SDS011;30529;53.570;9.964;2023-07-30T06:59:51;11.77;;;6.30;;
44816;SDS011;30529;53.570;9.964;2023-07-30T07:02:17;13.57;;;6.53;;
44816;SDS011;30529;53.570;9.964;2023-07-30T07:04:43;14.00;;;6.27;;
44816;SDS011;30529;53.570;9.964;2023-07-30T07:07:09;10.77;;;6.20;;
44816;SDS011;30529;53.570;9.964;2023-07-30T07:09:35;17.00;;;6.43;;
44816;SDS011;30529;53.570;9.964;2023-07-30T07:12:01;14.93;;;6.33;;
44816;SDS011;30529;53.570;9.964;2023-07-30T07:14:28;10.93;;;6.13;;
44816;SDS011;30529;53.570;9.964;2023-07-30T07:16:54;10.77;;;5.07;;
44816;SDS011;30529;53.570;9.964;2023-07-30T07:19:21;14.30;;;5.97;;
44816;SDS011;30529;53.570;9.964;2023-07-30T07:21:48;12.17;;;6.57;;
44816;SDS011;30529;53.570;9.964;2023-07-30T07:24:14;14.53;;;5.50;;
44816;SDS011;30529;53.570;9.964;2023-07-30T07:26:40;15.63;;;6.53;;
44816;SDS011;30529;53.570;9.964;2023-07-30T07:29:10;12.10;;;5.87;;
44816;SDS011;30529;53.570;9.964;2023-07-30T07:31:36;11.70;;;5.80;;
44816;SDS011;30529;53.570;9.964;2023-07-30T07:34:02;16.63;;;5.30;;
44816;SDS011;30529;53.570;9.964;2023-07-30T07:36:28;9.43;;;5.17;;
44816;SDS011;30529;53.570;9.964;2023-07-30T07:38:57;10.70;;;5.23;;
44816;SDS011;30529;53.570;9.964;2023-07-30T07:41:23;14.00;;;5.60;;
44816;SDS011;30529;53.570;9.964;2023-07-30T07:43:51;14.90;;;4.80;;
44816;SDS011;30529;53.570;9.964;2023-07-30T07:46:19;12.50;;;5.00;;
44816;SDS011;30529;53.570;9.964;2023-07-30T07:48:45;11.93;;;5.43;;
44816;SDS011;30529;53.570;9.964;2023-07-30T07:51:11;15.03;;;5.23;;
44816;SDS011;30529;53.570;9.964;2023-07-30T07:53:37;15.00;;;5.50;;
44816;SDS011;30529;53.570;9.964;2023-07-30T07:56:04;11.50;;;4.60;;
44816;SDS011;30529;53.570;9.964;2023-07-30T07:58:30;11.33;;;4.60;;
44816;SDS011;30529;53.570;9.964;2023-07-30T08:00:57;11.37;;;4.70;;
44816;SDS011;30529;53.570;9.964;2023-07-30T08:03:23;12.83;;;4.67;;
44816;SDS011;30529;53.570;9.964;2023-07-30T08:05:52;13.60;;;4.83;;
44816;SDS011;30529;53.570;9.964;2023-07-30T08:08:18;16.67;;;5.73;;
44816;SDS011;30529;53.570;9.964;2023-07-30T08:10:44;12.87;;;4.93;;
44816;SDS011;30529;53.570;9.964;2023-07-30T08:13:12;11.60;;;5.67;;
44816;SDS011;30529;53.570;9.964;2023-07-30T08:15:39;12.50;;;5.03;;
44816;SDS011;30529;53.570;9.964;2023-07-30T08:18:05;13.20;;;5.37;;
44816;SDS011;30529;53.570;9.964;2023-07-30T08:20:31;10.23;;;4.70;;
44816;SDS011;30529;53.570;9.964;2023-07-30T08:22:57;16.00;;;5.83;;
44816;SDS011;30529;53.570;9.964;2023-07-30T08:25:23;17.80;;;5.83;;
44816;SDS011;30529;53.570;9.964;2023-07-30T08:27:49;13.03;;;5.63;;
44816;SDS011;30529;53.570;9.964;2023-07-30T08:30:15;12.30;;;4.70;;
44816;SDS011;30529;53.570;9.964;2023-07-30T08:32:41;16.80;;;5.30;;
44816;SDS011;30529;53.570;9.964;2023-07-30T08:35:08;14.40;;;4.07;;
44816;SDS011;30529;53.570;9.964;2023-07-30T08:37:35;11.00;;;3.90;;
44816;SDS011;30529;53.570;9.964;2023-07-30T08:40:01;13.67;;;3.83;;
44816;SDS011;30529;53.570;9.964;2023-07-30T08:42:28;12.07;;;3.80;;
44816;SDS011;30529;53.570;9.964;2023-07-30T08:44:54;13.00;;;3.90;;
44816;SDS011;30529;53.570;9.964;2023-07-30T08:47:20;12.03;;;3.53;;
44816;SDS011;30529;53.570;9.964;2023-07-30T08:49:46;12.53;;;3.33;;
44816;SDS011;30529;53.570;9.964;2023-07-30T08:52:12;12.63;;;4.10;;
44816;SDS011;30529;53.570;9.964;2023-07-30T08:54:41;13.37;;;3.73;;
44816;SDS011;30529;53.570;9.964;2023-07-30T08:57:09;11.20;;;3.47;;
44816;SDS011;30529;53.570;9.964;2023-07-30T08:59:38;8.37;;;3.37;;
44816;SDS011;30529;53.570;9.964;2023-07-30T09:02:08;11.80;;;2.70;;
44816;SDS011;30529;53.570;9.964;2023-07-30T09:04:40;9.43;;;3.17;;
44816;SDS011;30529;53.570;9.964;2023-07-30T09:07:09;8.17;;;2.70;;
44816;SDS011;30529;53.570;9.964;2023-07-30T09:09:37;12.17;;;2.97;;
44816;SDS011;30529;53.570;9.964;2023-07-30T09:12:04;10.30;;;3.23;;
44816;SDS011;30529;53.570;9.964;2023-07-30T09:14:38;12.53;;;3.20;;
44816;SDS011;30529;53.570;9.964;2023-07-30T09:17:04;8.17;;;2.77;;
44816;SDS011;30529;53.570;9.964;2023-07-30T09:19:34;5.00;;;2.60;;
44816;SDS011;30529;53.570;9.964;2023-07-30T09:22:04;6.90;;;2.50;;
44816;SDS011;30529;53.570;9.964;2023-07-30T09:24:31;11.17;;;3.07;;
44816;SDS011;30529;53.570;9.964;2023-07-30T09:26:57;7.53;;;2.97;;
44816;SDS011;30529;53.570;9.964;2023-07-30T09:29:27;12.63;;;3.03;;
44816;SDS011;30529;53.570;9.964;2023-07-30T09:31:54;9.17;;;2.83;;
44816;SDS011;30529;53.570;9.964;2023-07-30T09:34:21;8.43;;;2.13;;
44816;SDS011;30529;53.570;9.964;2023-07-30T09:36:52;16.47;;;3.43;;
44816;SDS011;30529;53.570;9.964;2023-07-30T09:41:50;13.80;;;3.27;;
44816;SDS011;30529;53.570;9.964;2023-07-30T09:44:18;9.20;;;3.00;;
44816;SDS011;30529;53.570;9.964;2023-07-30T09:46:48;11.47;;;3.23;;
44816;SDS011;30529;53.570;9.964;2023-07-30T09:49:15;8.73;;;3.10;;
44816;SDS011;30529;53.570;9.964;2023-07-30T09:51:42;10.70;;;3.83;;
44816;SDS011;30529;53.570;9.964;2023-07-30T09:54:10;10.17;;;2.67;;
44816;SDS011;30529;53.570;9.964;2023-07-30T09:56:38;8.63;;;3.20;;
44816;SDS011;30529;53.570;9.964;2023-07-30T09:59:06;10.30;;;2.73;;
44816;SDS011;30529;53.570;9.964;2023-07-30T10:01:35;8.97;;;2.60;;
44816;SDS011;30529;53.570;9.964;2023-07-30T10:04:12;10.17;;;3.00;;
44816;SDS011;30529;53.570;9.964;2023-07-30T10:06:39;9.90;;;2.63;;
44816;SDS011;30529;53.570;9.964;2023-07-30T10:09:10;11.83;;;3.77;;
44816;SDS011;30529;53.570;9.964;2023-07-30T10:11:39;9.77;;;2.60;;
44816;SDS011;30529;53.570;9.964;2023-07-30T10:14:07;11.43;;;3.23;;
44816;SDS011;30529;53.570;9.964;2023-07-30T10:16:34;9.03;;;2.87;;
44816;SDS011;30529;53.570;9.964;2023-07-30T10:19:00;8.60;;;2.80;;
44816;SDS011;30529;53.570;9.964;2023-07-30T10:21:27;8.93;;;2.87;;
44816;SDS011;30529;53.570;9.964;2023-07-30T10:24:01;6.87;;;2.83;;
44816;SDS011;30529;53.570;9.964;2023-07-30T10:26:28;10.37;;;3.10;;
44816;SDS011;30529;53.570;9.964;2023-07-30T10:29:09;10.97;;;2.77;;
44816;SDS011;30529;53.570;9.964;2023-07-30T10:31:43;6.53;;;2.40;;
44816;SDS011;30529;53.570;9.964;2023-07-30T10:34:13;9.00;;;2.87;;
44816;SDS011;30529;53.570;9.964;2023-07-30T10:36:46;7.83;;;2.80;;
44816;SDS011;30529;53.570;9.964;2023-07-30T10:39:16;8.07;;;2.83;;
44816;SDS011;30529;53.570;9.964;2023-07-30T10:41:45;6.40;;;2.53;;
44816;SDS011;30529;53.570;9.964;2023-07-30T10:44:21;13.97;;;3.07;;
44816;SDS011;30529;53.570;9.964;2023-07-30T10:46:48;8.73;;;2.50;;
44816;SDS011;30529;53.570;9.964;2023-07-30T10:49:14;8.03;;;3.00;;
44816;SDS011;30529;53.570;9.964;2023-07-30T10:51:40;7.40;;;2.30;;
44816;SDS011;30529;53.570;9.964;2023-07-30T10:54:06;6.20;;;2.27;;
44816;SDS011;30529;53.570;9.964;2023-07-30T10:56:36;6.60;;;2.13;;
44816;SDS011;30529;53.570;9.964;2023-07-30T10:59:06;7.13;;;2.30;;
44816;SDS011;30529;53.570;9.964;2023-07-30T11:01:39;7.30;;;2.23;;
44816;SDS011;30529;53.570;9.964;2023-07-30T11:04:07;8.07;;;2.87;;
44816;SDS011;30529;53.570;9.964;2023-07-30T11:06:37;8.20;;;2.80;;
44816;SDS011;30529;53.570;9.964;2023-07-30T11:09:04;12.37;;;2.13;;
44816;SDS011;30529;53.570;9.964;2023-07-30T11:11:31;7.87;;;2.37;;
44816;SDS011;30529;53.570;9.964;2023-07-30T11:13:57;6.00;;;2.07;;
44816;SDS011;30529;53.570;9.964;2023-07-30T11:16:24;5.20;;;2.10;;
44816;SDS011;30529;53.570;9.964;2023-07-30T11:18:50;6.40;;;2.10;;
44816;SDS011;30529;53.570;9.964;2023-07-30T11:21:17;9.40;;;2.67;;
44816;SDS011;30529;53.570;9.964;2023-07-30T11:23:44;8.97;;;2.47;;
44816;SDS011;30529;53.570;9.964;2023-07-30T11:26:15;6.40;;;2.00;;
44816;SDS011;30529;53.570;9.964;2023-07-30T11:28:45;8.20;;;2.13;;
44816;SDS011;30529;53.570;9.964;2023-07-30T11:31:12;9.00;;;2.47;;
44816;SDS011;30529;53.570;9.964;2023-07-30T11:33:40;5.83;;;1.93;;
44816;SDS011;30529;53.570;9.964;2023-07-30T11:36:09;6.63;;;2.53;;
44816;SDS011;30529;53.570;9.964;2023-07-30T11:38:44;9.43;;;2.40;;
44816;SDS011;30529;53.570;9.964;2023-07-30T11:41:10;6.23;;;2.20;;
44816;SDS011;30529;53.570;9.964;2023-07-30T11:43:41;7.30;;;2.00;;
44816;SDS011;30529;53.570;9.964;2023-07-30T11:46:09;8.53;;;2.93;;
44816;SDS011;30529;53.570;9.964;2023-07-30T11:48:37;6.97;;;2.30;;
44816;SDS011;30529;53.570;9.964;2023-07-30T11:51:04;6.63;;;2.07;;
44816;SDS011;30529;53.570;9.964;2023-07-30T11:53:50;7.43;;;1.93;;
44816;SDS011;30529;53.570;9.964;2023-07-30T11:56:18;5.17;;;2.00;;
44816;SDS011;30529;53.570;9.964;2023-07-30T11:58:47;9.83;;;2.47;;
44816;SDS011;30529;53.570;9.964;2023-07-30T12:01:15;4.33;;;1.77;;
44816;SDS011;30529;53.570;9.964;2023-07-30T12:03:42;5.80;;;1.93;;
44816;SDS011;30529;53.570;9.964;2023-07-30T12:06:11;8.40;;;1.70;;
44816;SDS011;30529;53.570;9.964;2023-07-30T12:08:38;6.37;;;1.67;;
44816;SDS011;30529;53.570;9.964;2023-07-30T12:11:05;5.20;;;1.47;;
44816;SDS011;30529;53.570;9.964;2023-07-30T12:13:32;4.87;;;1.93;;
44816;SDS011;30529;53.570;9.964;2023-07-30T12:15:58;9.53;;;2.23;;
44816;SDS011;30529;53.570;9.964;2023-07-30T12:18:25;4.30;;;1.90;;
44816;SDS011;30529;53.570;9.964;2023-07-30T12:20:53;6.27;;;1.70;;
44816;SDS011;30529;53.570;9.964;2023-07-30T12:23:19;8.17;;;2.33;;
44816;SDS011;30529;53.570;9.964;2023-07-30T12:25:45;5.10;;;2.43;;
44816;SDS011;30529;53.570;9.964;2023-07-30T12:28:12;7.70;;;2.50;;
44816;SDS011;30529;53.570;9.964;2023-07-30T12:30:39;4.93;;;1.77;;
44816;SDS011;30529;53.570;9.964;2023-07-30T12:33:05;8.17;;;2.10;;
44816;SDS011;30529;53.570;9.964;2023-07-30T12:35:32;11.03;;;2.27;;
44816;SDS011;30529;53.570;9.964;2023-07-30T12:37:58;6.43;;;2.03;;
44816;SDS011;30529;53.570;9.964;2023-07-30T12:40:25;6.97;;;1.87;;
44816;SDS011;30529;53.570;9.964;2023-07-30T12:42:52;7.30;;;2.00;;
44816;SDS011;30529;53.570;9.964;2023-07-30T12:45:18;5.37;;;1.87;;
44816;SDS011;30529;53.570;9.964;2023-07-30T12:47:44;6.90;;;1.80;;
44816;SDS011;30529;53.570;9.964;2023-07-30T12:50:10;7.93;;;2.03;;
44816;SDS011;30529;53.570;9.964;2023-07-30T12:52:36;5.83;;;1.77;;
44816;SDS011;30529;53.570;9.964;2023-07-30T12:55:02;7.20;;;1.87;;
44816;SDS011;30529;53.570;9.964;2023-07-30T12:57:29;6.03;;;1.93;;
44816;SDS011;30529;53.570;9.964;2023-07-30T12:59:55;7.27;;;2.00;;
44816;SDS011;30529;53.570;9.964;2023-07-30T13:02:21;5.03;;;1.87;;
44816;SDS011;30529;53.570;9.964;2023-07-30T13:04:47;5.63;;;1.80;;
44816;SDS011;30529;53.570;9.964;2023-07-30T13:07:13;6.30;;;2.47;;
44816;SDS011;30529;53.570;9.964;2023-07-30T13:09:39;5.83;;;1.97;;
44816;SDS011;30529;53.570;9.964;2023-07-30T13:12:05;8.13;;;2.50;;
44816;SDS011;30529;53.570;9.964;2023-07-30T13:14:32;4.30;;;1.67;;
44816;SDS011;30529;53.570;9.964;2023-07-30T13:16:57;4.20;;;1.30;;
44816;SDS011;30529;53.570;9.964;2023-07-30T13:19:23;3.83;;;1.30;;
44816;SDS011;30529;53.570;9.964;2023-07-30T13:21:50;4.67;;;1.27;;
44816;SDS011;30529;53.570;9.964;2023-07-30T13:24:16;7.03;;;1.50;;
44816;SDS011;30529;53.570;9.964;2023-07-30T13:26:41;2.77;;;1.40;;
44816;SDS011;30529;53.570;9.964;2023-07-30T13:29:07;2.63;;;1.23;;
44816;SDS011;30529;53.570;9.964;2023-07-30T13:31:33;7.80;;;1.27;;
44816;SDS011;30529;53.570;9.964;2023-07-30T13:33:59;2.93;;;1.40;;
44816;SDS011;30529;53.570;9.964;2023-07-30T13:36:25;4.70;;;1.60;;
44816;SDS011;30529;53.570;9.964;2023-07-30T13:38:51;4.30;;;1.40;;
44816;SDS011;30529;53.570;9.964;2023-07-30T13:41:17;5.50;;;1.50;;
44816;SDS011;30529;53.570;9.964;2023-07-30T13:43:43;5.23;;;1.27;;
44816;SDS011;30529;53.570;9.964;2023-07-30T13:46:09;2.87;;;1.50;;
44816;SDS011;30529;53.570;9.964;2023-07-30T13:48:35;4.57;;;1.37;;
44816;SDS011;30529;53.570;9.964;2023-07-30T13:51:01;4.17;;;1.70;;
44816;SDS011;30529;53.570;9.964;2023-07-30T13:53:27;4.63;;;1.33;;
44816;SDS011;30529;53.570;9.964;2023-07-30T13:55:53;4.43;;;1.40;;
44816;SDS011;30529;53.570;9.964;2023-07-30T13:58:19;3.00;;;1.40;;
44816;SDS011;30529;53.570;9.964;2023-07-30T14:00:45;6.20;;;1.83;;
44816;SDS011;30529;53.570;9.964;2023-07-30T14:03:11;5.70;;;1.40;;
44816;SDS011;30529;53.570;9.964;2023-07-30T14:05:38;3.93;;;1.30;;
44816;SDS011;30529;53.570;9.964;2023-07-30T14:08:04;6.10;;;1.83;;
44816;SDS011;30529;53.570;9.964;2023-07-30T14:10:30;2.43;;;1.43;;
44816;SDS011;30529;53.570;9.964;2023-07-30T14:12:56;3.30;;;1.37;;
44816;SDS011;30529;53.570;9.964;2023-07-30T14:15:22;6.53;;;1.40;;
44816;SDS011;30529;53.570;9.964;2023-07-30T14:17:48;3.20;;;1.40;;
44816;SDS011;30529;53.570;9.964;2023-07-30T14:20:16;3.30;;;1.40;;
44816;SDS011;30529;53.570;9.964;2023-07-30T14:22:42;5.60;;;1.60;;
44816;SDS011;30529;53.570;9.964;2023-07-30T14:25:08;5.57;;;1.70;;
44816;SDS011;30529;53.570;9.964;2023-07-30T14:27:34;3.77;;;1.10;;
44816;SDS011;30529;53.570;9.964;2023-07-30T14:30:00;3.40;;;1.70;;
44816;SDS011;30529;53.570;9.964;2023-07-30T14:32:27;3.83;;;1.40;;
44816;SDS011;30529;53.570;9.964;2023-07-30T14:34:52;4.27;;;1.10;;
44816;SDS011;30529;53.570;9.964;2023-07-30T14:37:18;3.97;;;1.33;;
44816;SDS011;30529;53.570;9.964;2023-07-30T14:39:44;2.50;;;1.10;;
44816;SDS011;30529;53.570;9.964;2023-07-30T14:42:11;5.47;;;1.83;;
44816;SDS011;30529;53.570;9.964;2023-07-30T14:44:36;2.30;;;1.20;;
44816;SDS011;30529;53.570;9.964;2023-07-30T14:47:04;3.57;;;1.30;;